createdAt,value
2023-04-14T00:02:49.100Z,45.76
2023-04-14T00:05:55.072Z,46.32
2023-04-14T00:09:02.005Z,45.44
2023-04-14T00:12:11.256Z,45.19
2023-04-14T00:15:27.362Z,44.80
2023-04-14T00:18:33.376Z,44.37
2023-04-14T00:21:41.843Z,44.60
2023-04-14T00:24:48.222Z,44.97
2023-04-14T00:28:04.254Z,43.77
2023-04-14T00:31:10.231Z,43.98
2023-04-14T00:34:17.154Z,42.69
2023-04-14T00:37:26.477Z,41.34
2023-04-14T00:40:33.891Z,39.91
2023-04-14T00:43:42.531Z,41.19
2023-04-14T00:46:49.539Z,42.70
2023-04-14T00:49:55.573Z,42.59
2023-04-14T00:53:02.551Z,43.36
2023-04-14T00:56:09.731Z,41.58
2023-04-14T00:59:20.846Z,43.46
2023-04-14T01:02:32.575Z,43.03
2023-04-14T01:05:39.545Z,41.89
2023-04-14T01:08:45.830Z,42.64
2023-04-14T01:12:24.341Z,41.65
2023-04-14T01:15:47.002Z,40.20
2023-04-14T01:19:32.411Z,41.02
2023-04-14T01:22:50.680Z,41.51
2023-04-14T01:26:21.472Z,41.68
2023-04-14T01:29:56.647Z,41.53
2023-04-14T01:33:15.032Z,39.17
2023-04-14T01:36:36.522Z,38.72
2023-04-14T01:39:50.458Z,38.88
2023-04-14T01:43:07.117Z,39.86
2023-04-14T01:46:25.809Z,38.68
2023-04-14T01:49:41.388Z,38.33
2023-04-14T01:52:51.743Z,35.85
2023-04-14T01:56:02.478Z,36.29
2023-04-14T01:59:17.556Z,37.84
2023-04-14T02:02:32.344Z,37.74
2023-04-14T02:05:45.260Z,38.07
2023-04-14T02:08:54.326Z,36.79
2023-04-14T02:12:08.622Z,35.81
2023-04-14T02:15:20.228Z,36.49
2023-04-14T02:18:26.861Z,37.42
2023-04-14T02:21:38.963Z,37.29
2023-04-14T02:24:44.959Z,38.24
2023-04-14T02:28:05.103Z,38.67
2023-04-14T02:31:20.614Z,39.06
2023-04-14T02:34:34.337Z,39.90
2023-04-14T02:37:54.142Z,42.06
2023-04-14T02:41:11.317Z,41.35
2023-04-14T02:44:24.532Z,42.55
2023-04-14T02:47:38.471Z,41.81
2023-04-14T02:50:50.702Z,42.44
2023-04-14T02:54:12.343Z,42.61
2023-04-14T02:57:24.391Z,43.51
2023-04-14T03:00:33.342Z,42.47
2023-04-14T03:03:43.169Z,42.32
2023-04-14T03:06:52.886Z,41.76
2023-04-14T03:10:02.622Z,42.65
2023-04-14T03:13:11.803Z,41.53
2023-04-14T03:16:33.477Z,40.96
2023-04-14T03:19:45.339Z,39.75
2023-04-14T03:22:58.043Z,38.73
2023-04-14T03:26:09.789Z,39.10
2023-04-14T03:29:22.286Z,45.38
2023-04-14T03:32:42.058Z,43.67
2023-04-14T03:35:57.598Z,40.69
2023-04-14T03:39:08.581Z,40.28
2023-04-14T03:42:22.292Z,40.49
2023-04-14T03:45:43.585Z,41.08
2023-04-14T03:48:54.897Z,40.73
2023-04-14T03:52:09.977Z,39.03
2023-04-14T03:55:23.519Z,38.94
2023-04-14T03:58:37.526Z,38.30
2023-04-14T04:01:46.476Z,35.40
2023-04-14T04:04:54.938Z,33.15
2023-04-14T04:08:06.408Z,31.01
2023-04-14T04:11:19.101Z,30.04
2023-04-14T04:14:38.487Z,30.59
2023-04-14T04:17:55.966Z,30.88
2023-04-14T04:21:04.573Z,31.67
2023-04-14T04:24:15.310Z,32.84
2023-04-14T04:27:28.112Z,32.71
2023-04-14T04:30:50.628Z,33.97
2023-04-14T04:33:58.461Z,34.09
2023-04-14T04:37:07.056Z,34.12
2023-04-14T04:40:15.197Z,34.99
2023-04-14T04:43:22.686Z,34.00
2023-04-14T04:46:53.374Z,35.41
2023-04-14T04:50:03.862Z,35.26
2023-04-14T04:53:09.709Z,35.34
2023-04-14T04:56:16.598Z,35.45
2023-04-14T04:59:22.760Z,35.17
2023-04-14T05:02:32.416Z,34.11
2023-04-14T05:05:41.006Z,35.63
2023-04-14T05:08:47.780Z,36.30
2023-04-14T05:11:53.947Z,37.16
2023-04-14T05:15:00.723Z,37.15
2023-04-14T05:18:09.307Z,36.65
2023-04-14T05:21:18.447Z,35.29
2023-04-14T05:24:24.365Z,32.36
2023-04-14T05:27:31.690Z,28.33
2023-04-14T05:30:37.640Z,26.66
2023-04-14T05:33:46.957Z,27.05
2023-04-14T05:36:53.322Z,27.03
2023-04-14T05:40:00.075Z,27.13
2023-04-14T05:43:06.244Z,27.68
2023-04-14T05:46:13.077Z,27.29
2023-04-14T05:49:21.739Z,27.72
2023-04-14T05:52:31.929Z,27.75
2023-04-14T05:55:37.934Z,29.45
2023-04-14T05:58:44.702Z,31.18
2023-04-14T06:01:50.694Z,33.07
2023-04-14T06:05:00.099Z,37.60
2023-04-14T06:08:06.467Z,34.65
2023-04-14T06:11:14.446Z,32.39
2023-04-14T06:14:20.482Z,33.11
2023-04-14T06:17:28.433Z,31.63
2023-04-14T06:20:38.438Z,31.04
2023-04-14T06:23:45.263Z,30.56
2023-04-14T06:26:51.395Z,29.80
2023-04-14T06:29:58.429Z,30.81
2023-04-14T06:33:05.130Z,30.40
2023-04-14T06:36:17.245Z,30.31
2023-04-14T06:39:23.206Z,30.03
2023-04-14T06:42:29.981Z,29.95
2023-04-14T06:45:36.440Z,30.15
2023-04-14T06:48:46.403Z,30.35
2023-04-14T06:51:54.961Z,30.39
2023-04-14T06:55:02.324Z,30.29
2023-04-14T06:58:08.382Z,30.27
2023-04-14T07:01:15.267Z,29.98
2023-04-14T07:04:21.283Z,29.37
2023-04-14T07:07:30.830Z,30.38
2023-04-14T07:10:36.936Z,32.65
2023-04-14T07:13:43.900Z,30.11
2023-04-14T07:16:50.019Z,28.57
2023-04-14T07:19:58.577Z,28.05
2023-04-14T07:23:07.109Z,27.98
2023-04-14T07:26:13.963Z,27.97
2023-04-14T07:29:19.989Z,27.15
2023-04-14T07:32:27.054Z,27.01
2023-04-14T07:35:34.162Z,27.03
2023-04-14T07:38:44.106Z,25.49
2023-04-14T07:41:50.058Z,24.58
2023-04-14T07:44:56.951Z,25.05
2023-04-14T07:48:03.144Z,23.72
2023-04-14T07:51:12.449Z,23.23
2023-04-14T07:54:21.186Z,24.29
2023-04-14T07:57:28.228Z,23.23
2023-04-14T08:00:34.274Z,22.43
2023-04-14T08:03:42.938Z,21.97
2023-04-14T08:06:51.495Z,20.37
2023-04-14T08:10:01.126Z,18.51
2023-04-14T08:13:07.198Z,17.92
2023-04-14T08:16:14.114Z,17.49
2023-04-14T08:19:20.047Z,16.92
2023-04-14T08:22:26.981Z,16.03
2023-04-14T08:25:35.749Z,16.09
2023-04-14T08:28:42.686Z,15.95
2023-04-14T08:31:48.748Z,15.01
2023-04-14T08:35:39.929Z,14.83
2023-04-14T08:38:21.885Z,14.57
2023-04-14T08:41:36.632Z,13.89
2023-04-14T08:44:42.547Z,14.03
2023-04-14T08:47:51.554Z,14.55
2023-04-14T08:51:09.829Z,15.03
2023-04-14T08:54:18.452Z,14.39
2023-04-14T08:57:30.680Z,14.72
2023-04-14T09:00:39.694Z,15.01
2023-04-14T09:03:47.938Z,15.16
2023-04-14T09:06:56.205Z,16.10
2023-04-14T09:10:09.948Z,15.05
2023-04-14T09:13:23.742Z,15.14
2023-04-14T09:16:32.246Z,15.42
2023-04-14T09:20:35.032Z,14.97
2023-04-14T09:23:06.397Z,15.10
2023-04-14T09:26:14.788Z,15.03
2023-04-14T09:29:23.342Z,14.65
2023-04-14T09:32:30.180Z,14.12
2023-04-14T09:35:54.150Z,14.97
2023-04-14T09:39:00.935Z,14.81
2023-04-14T09:42:08.160Z,14.87
2023-04-14T09:45:17.542Z,14.97
2023-04-14T09:48:26.797Z,15.35
2023-04-14T09:51:35.307Z,14.79
2023-04-14T09:54:44.298Z,14.55
2023-04-14T09:57:52.207Z,14.75
2023-04-14T10:01:00.745Z,14.74
2023-04-14T10:04:08.196Z,13.86
2023-04-14T10:07:14.149Z,14.86
2023-04-14T10:10:28.279Z,16.64
2023-04-14T10:13:36.424Z,14.24
2023-04-14T10:16:46.185Z,14.09
2023-04-14T10:19:53.019Z,15.11
2023-04-14T10:23:00.991Z,16.73
2023-04-14T10:26:08.578Z,16.33
2023-04-14T10:29:19.492Z,12.74
2023-04-14T10:32:33.648Z,12.35
2023-04-14T10:35:48.726Z,11.63
2023-04-14T10:39:05.113Z,11.28
2023-04-14T10:42:12.877Z,11.00
2023-04-14T10:45:19.891Z,11.15
2023-04-14T10:48:34.983Z,9.86
2023-04-14T10:51:41.851Z,9.95
2023-04-14T10:55:01.323Z,9.67
2023-04-14T10:58:09.345Z,9.21
2023-04-14T11:01:31.870Z,9.28
2023-04-14T11:05:12.099Z,9.74
2023-04-14T11:08:21.281Z,9.64
2023-04-14T11:11:31.951Z,9.69
2023-04-14T11:14:39.500Z,9.16
2023-04-14T11:17:47.105Z,7.89
2023-04-14T11:21:04.645Z,7.75
2023-04-14T11:24:10.887Z,7.84
2023-04-14T11:27:18.350Z,7.38
2023-04-14T11:30:25.403Z,7.21
2023-04-14T11:33:34.436Z,6.79
2023-04-14T11:36:43.215Z,6.57
2023-04-14T11:39:50.146Z,6.47
2023-04-14T11:42:58.347Z,6.38
2023-04-14T11:46:09.564Z,6.36
2023-04-14T11:49:15.615Z,6.27
2023-04-14T11:52:26.245Z,6.13
2023-04-14T11:55:33.371Z,6.30
2023-04-14T11:58:40.215Z,5.80
2023-04-14T12:01:46.315Z,5.48
2023-04-14T12:04:54.731Z,5.56
2023-04-14T12:08:07.880Z,5.97
2023-04-14T12:11:19.600Z,5.25
2023-04-14T12:14:25.992Z,5.49
2023-04-14T12:17:34.147Z,5.56
2023-04-14T12:20:48.154Z,5.25
2023-04-14T12:23:58.357Z,5.19
2023-04-14T12:27:06.249Z,5.10
2023-04-14T12:30:14.502Z,4.79
2023-04-14T12:33:20.707Z,4.98
2023-04-14T12:36:45.188Z,4.78
2023-04-14T12:40:01.271Z,4.76
2023-04-14T12:43:08.719Z,4.50
2023-04-14T12:46:14.878Z,5.16
2023-04-14T12:49:39.366Z,8.33
2023-04-14T12:52:46.020Z,9.32
2023-04-14T12:56:09.557Z,10.22
2023-04-14T12:59:15.678Z,12.01
2023-04-14T13:02:22.923Z,10.29
2023-04-14T13:05:29.154Z,7.40
2023-04-14T13:08:36.474Z,5.35
2023-04-14T13:11:44.947Z,4.91
2023-04-14T13:14:51.936Z,4.47
2023-04-14T13:17:58.078Z,4.87
2023-04-14T13:21:05.291Z,4.66
2023-04-14T13:24:11.532Z,4.79
2023-04-14T13:27:21.782Z,5.32
2023-04-14T13:30:27.729Z,6.75
2023-04-14T13:33:36.791Z,5.35
2023-04-14T13:36:42.800Z,5.70
2023-04-14T13:39:49.836Z,5.92
2023-04-14T13:42:58.801Z,5.86
2023-04-14T13:46:05.763Z,5.79
2023-04-14T13:49:11.683Z,5.70
2023-04-14T13:52:18.728Z,6.04
2023-04-14T13:55:39.693Z,5.96
2023-04-14T13:59:03.600Z,5.83
2023-04-14T14:02:10.743Z,6.19
2023-04-14T14:05:19.057Z,5.67
2023-04-14T14:08:26.382Z,6.07
2023-04-14T14:11:32.321Z,6.22
2023-04-14T14:14:41.888Z,6.90
2023-04-14T14:17:48.083Z,7.99
2023-04-14T14:20:54.894Z,8.39
2023-04-14T14:24:01.526Z,7.53
2023-04-14T14:27:08.651Z,7.57
2023-04-14T14:30:18.250Z,7.65
2023-04-14T14:33:25.699Z,7.59
2023-04-14T14:36:33.488Z,7.66
2023-04-14T14:39:40.237Z,8.46
2023-04-14T14:42:46.244Z,11.30
2023-04-14T14:45:55.878Z,9.63
2023-04-14T14:49:01.877Z,8.35
2023-04-14T14:52:08.845Z,8.51
2023-04-14T14:55:14.785Z,8.47
2023-04-14T14:58:21.831Z,9.15
2023-04-14T15:01:30.563Z,9.66
2023-04-14T15:04:37.373Z,8.98
2023-04-14T15:07:43.356Z,9.36
2023-04-14T15:10:50.037Z,8.51
2023-04-14T15:13:55.961Z,9.69
2023-04-14T15:17:05.378Z,10.32
2023-04-14T15:20:13.388Z,10.61
2023-04-14T15:23:20.170Z,9.63
2023-04-14T15:26:26.115Z,10.31
2023-04-14T15:29:39.763Z,10.95
2023-04-14T15:32:48.705Z,12.51
2023-04-14T15:35:55.804Z,14.21
2023-04-14T15:39:01.978Z,15.76
2023-04-14T15:42:08.734Z,14.78
2023-04-14T15:45:15.393Z,11.59
2023-04-14T15:48:24.732Z,11.07
2023-04-14T15:51:30.701Z,10.71
2023-04-14T15:54:37.712Z,10.59
2023-04-14T15:57:44.400Z,12.82
2023-04-14T16:00:51.310Z,11.98
2023-04-14T16:03:59.913Z,10.48
2023-04-14T16:07:15.141Z,10.90
2023-04-14T16:10:21.236Z,10.62
2023-04-14T16:13:27.990Z,10.32
2023-04-14T16:16:34.246Z,10.39
2023-04-14T16:19:45.037Z,9.73
2023-04-14T16:22:52.724Z,9.79
2023-04-14T16:26:00.022Z,10.10
2023-04-14T16:29:06.289Z,10.12
2023-04-14T16:32:13.327Z,9.94
2023-04-14T16:35:22.115Z,10.57
2023-04-14T16:38:32.086Z,9.35
2023-04-14T16:41:37.993Z,8.38
2023-04-14T16:44:44.795Z,8.66
2023-04-14T16:47:50.886Z,9.02
2023-04-14T16:51:00.743Z,9.25
2023-04-14T16:54:13.313Z,9.02
2023-04-14T16:57:26.957Z,9.54
2023-04-14T17:00:36.009Z,9.09
2023-04-14T17:03:43.014Z,10.16
2023-04-14T17:06:55.356Z,13.53
2023-04-14T17:10:02.256Z,11.58
2023-04-14T17:13:18.381Z,13.82
2023-04-14T17:16:29.034Z,12.01
2023-04-14T17:19:36.533Z,12.71
2023-04-14T17:22:48.800Z,12.96
2023-04-14T17:25:56.582Z,11.02
2023-04-14T17:29:03.873Z,10.80
2023-04-14T17:32:25.295Z,11.02
2023-04-14T17:35:35.148Z,11.86
2023-04-14T17:38:54.645Z,11.95
2023-04-14T17:42:02.565Z,12.96
2023-04-14T17:45:25.983Z,12.95
2023-04-14T17:48:33.631Z,13.76
2023-04-14T17:51:57.463Z,12.91
2023-04-14T17:55:09.210Z,14.14
2023-04-14T17:58:16.176Z,14.50
2023-04-14T18:01:24.377Z,14.21
2023-04-14T18:04:30.517Z,14.92
2023-04-14T18:07:38.270Z,14.86
2023-04-14T18:10:49.920Z,15.27
2023-04-14T18:13:57.425Z,19.15
2023-04-14T18:17:09.968Z,23.04
2023-04-14T18:20:19.021Z,20.62
2023-04-14T18:23:25.194Z,20.35
2023-04-14T18:26:34.856Z,19.29
2023-04-14T18:29:41.624Z,19.92
2023-04-14T18:32:48.757Z,20.33
2023-04-14T18:35:55.566Z,17.95
2023-04-14T18:39:02.985Z,18.00
2023-04-14T18:42:15.543Z,17.06
2023-04-14T18:45:22.672Z,18.21
2023-04-14T18:48:29.227Z,18.06
2023-04-14T18:51:36.486Z,17.38
2023-04-14T18:54:43.172Z,17.69
2023-04-14T18:57:58.601Z,17.47
2023-04-14T19:01:04.883Z,17.29
2023-04-14T19:04:12.013Z,16.86
2023-04-14T19:07:18.646Z,18.31
2023-04-14T19:10:25.901Z,17.96
2023-04-14T19:13:35.114Z,18.43
2023-04-14T19:16:41.907Z,21.56
2023-04-14T19:19:51.594Z,19.92
2023-04-14T19:23:01.022Z,19.56
2023-04-14T19:26:08.642Z,18.81
2023-04-14T19:29:18.782Z,17.85
2023-04-14T19:32:24.941Z,18.09
2023-04-14T19:35:36.862Z,17.84
2023-04-14T19:38:43.343Z,17.05
2023-04-14T19:41:50.875Z,16.74
2023-04-14T19:44:59.561Z,16.67
2023-04-14T19:48:19.878Z,16.98
2023-04-14T19:51:30.885Z,17.31
2023-04-14T19:54:38.187Z,17.47
2023-04-14T19:57:44.092Z,17.85
2023-04-14T20:00:57.588Z,17.87
2023-04-14T20:04:10.715Z,17.73
2023-04-14T20:07:19.464Z,17.67
2023-04-14T20:10:27.755Z,17.96
2023-04-14T20:13:35.893Z,18.78
2023-04-14T20:16:46.346Z,18.70
2023-04-14T20:19:53.514Z,18.36
2023-04-14T20:23:01.693Z,17.18
2023-04-14T20:26:08.717Z,16.50
2023-04-14T20:29:16.281Z,16.72
2023-04-14T20:32:25.879Z,16.81
2023-04-14T20:35:33.008Z,16.71
2023-04-14T20:38:40.248Z,16.51
2023-04-14T20:41:46.724Z,17.17
2023-04-14T20:44:53.674Z,16.98
2023-04-14T20:48:03.011Z,17.78
2023-04-14T20:51:09.957Z,17.78
2023-04-14T20:54:16.013Z,18.52
2023-04-14T20:57:22.960Z,17.03
2023-04-14T21:00:29.629Z,16.22
2023-04-14T21:03:39.693Z,15.61
2023-04-14T21:06:46.230Z,15.41
2023-04-14T21:09:53.147Z,17.21
2023-04-14T21:15:29.552Z,15.90
2023-04-14T21:16:26.314Z,13.72
2023-04-14T21:19:34.923Z,11.69
2023-04-14T21:22:41.679Z,10.89
2023-04-14T21:25:48.413Z,12.47
2023-04-14T21:28:55.171Z,11.35
2023-04-14T21:32:01.508Z,10.41
2023-04-14T21:35:12.516Z,9.20
2023-04-14T21:38:18.520Z,9.13
2023-04-14T21:41:25.515Z,9.01
2023-04-14T21:44:32.026Z,8.99
2023-04-14T21:47:38.814Z,8.88
2023-04-14T21:50:47.632Z,8.05
2023-04-14T21:53:54.439Z,8.31
2023-04-14T21:57:01.288Z,7.48
2023-04-14T22:00:13.607Z,8.24
2023-04-14T22:03:23.012Z,7.90
2023-04-14T22:06:32.661Z,8.21
2023-04-14T22:09:38.678Z,8.39
2023-04-14T22:12:46.041Z,8.92
2023-04-14T22:15:52.212Z,8.71
2023-04-14T22:18:59.589Z,9.45
2023-04-14T22:22:08.768Z,9.73
2023-04-14T22:25:15.635Z,9.10
2023-04-14T22:28:21.958Z,9.62
2023-04-14T22:31:28.720Z,9.43
2023-04-14T22:34:34.637Z,9.60
2023-04-14T22:37:44.013Z,9.19
2023-04-14T22:40:52.254Z,9.57
2023-04-14T22:43:59.353Z,10.16
2023-04-14T22:47:06.470Z,10.18
2023-04-14T22:50:14.124Z,10.29
2023-04-14T22:53:22.905Z,9.88
2023-04-14T22:56:31.187Z,10.77
2023-04-14T22:59:37.399Z,10.66
2023-04-14T23:02:44.283Z,10.91
2023-04-14T23:05:52.073Z,11.38
2023-04-14T23:09:01.858Z,11.67
2023-04-14T23:12:08.623Z,12.63
2023-04-14T23:15:15.411Z,13.39
2023-04-14T23:18:21.699Z,13.10
2023-04-14T23:21:28.549Z,14.05
2023-04-14T23:24:37.531Z,13.09
2023-04-14T23:27:44.218Z,13.81
2023-04-14T23:30:50.065Z,14.24
2023-04-14T23:33:56.987Z,14.75
2023-04-14T23:37:02.891Z,15.60
2023-04-14T23:40:14.941Z,15.45
2023-04-14T23:43:22.032Z,15.27
2023-04-14T23:46:29.310Z,15.23
2023-04-14T23:49:35.790Z,15.17
2023-04-14T23:52:42.984Z,15.40
2023-04-14T23:55:51.822Z,18.48
2023-04-14T23:58:58.916Z,17.89
